sensor_id;sensor_type;location;lat;lon;timestamp;temperature;humidity
38221;DHT22;24023;51.280;7.148;2022-11-15T00:00:11;11.2;99.9
38221;DHT22;24023;51.280;7.148;2022-11-15T00:05:07;11.2;99.9
38221;DHT22;24023;51.280;7.148;2022-11-15T00:10:08;11.3;99.9
38221;DHT22;24023;51.280;7.148;2022-11-15T00:15:08;11.3;99.9
38221;DHT22;24023;51.280;7.148;2022-11-15T00:20:09;11.3;99.9
38221;DHT22;24023;51.280;7.148;2022-11-15T00:25:07;11.4;99.9
38221;DHT22;24023;51.280;7.148;2022-11-15T00:30:11;11.4;99.9
38221;DHT22;24023;51.280;7.148;2022-11-15T00:35:07;11.6;99.9
38221;DHT22;24023;51.280;7.148;2022-11-15T00:40:10;11.6;99.9
38221;DHT22;24023;51.280;7.148;2022-11-15T00:45:09;11.6;99.9
38221;DHT22;24023;51.280;7.148;2022-11-15T00:50:08;11.6;99.9
38221;DHT22;24023;51.280;7.148;2022-11-15T00:55:09;11.6;99.9
38221;DHT22;24023;51.280;7.148;2022-11-15T01:00:14;11.7;99.9
38221;DHT22;24023;51.280;7.148;2022-11-15T01:05:07;11.7;99.9
38221;DHT22;24023;51.280;7.148;2022-11-15T01:10:08;11.8;99.9
38221;DHT22;24023;51.280;7.148;2022-11-15T01:15:08;11.8;99.9
38221;DHT22;24023;51.280;7.148;2022-11-15T01:20:09;11.7;99.9
38221;DHT22;24023;51.280;7.148;2022-11-15T01:25:07;11.7;99.9
38221;DHT22;24023;51.280;7.148;2022-11-15T01:30:10;11.9;99.9
38221;DHT22;24023;51.280;7.148;2022-11-15T01:35:07;11.9;99.9
38221;DHT22;24023;51.280;7.148;2022-11-15T01:40:08;12.0;99.9
38221;DHT22;24023;51.280;7.148;2022-11-15T01:45:13;12.0;99.9
38221;DHT22;24023;51.280;7.148;2022-11-15T01:50:10;12.0;99.9
38221;DHT22;24023;51.280;7.148;2022-11-15T01:55:10;12.0;99.9
38221;DHT22;24023;51.280;7.148;2022-11-15T02:00:12;12.1;99.9
38221;DHT22;24023;51.280;7.148;2022-11-15T02:05:07;12.1;99.9
38221;DHT22;24023;51.280;7.148;2022-11-15T02:10:11;12.1;99.9
38221;DHT22;24023;51.280;7.148;2022-11-15T02:15:10;12.1;99.9
38221;DHT22;24023;51.280;7.148;2022-11-15T02:20:26;12.1;99.9
38221;DHT22;24023;51.280;7.148;2022-11-15T02:25:18;12.0;99.9
38221;DHT22;24023;51.280;7.148;2022-11-15T02:30:28;12.0;99.9
38221;DHT22;24023;51.280;7.148;2022-11-15T02:35:13;12.0;99.9
38221;DHT22;24023;51.280;7.148;2022-11-15T02:40:28;12.0;99.9
38221;DHT22;24023;51.280;7.148;2022-11-15T02:45:12;12.0;99.9
38221;DHT22;24023;51.280;7.148;2022-11-15T02:50:10;12.1;99.9
38221;DHT22;24023;51.280;7.148;2022-11-15T02:55:26;12.1;99.9
38221;DHT22;24023;51.280;7.148;2022-11-15T03:00:13;12.2;99.9
38221;DHT22;24023;51.280;7.148;2022-11-15T03:05:15;12.2;99.9
38221;DHT22;24023;51.280;7.148;2022-11-15T03:10:12;12.2;99.9
38221;DHT22;24023;51.280;7.148;2022-11-15T03:15:11;12.2;99.9
38221;DHT22;24023;51.280;7.148;2022-11-15T03:20:09;12.2;99.9
38221;DHT22;24023;51.280;7.148;2022-11-15T03:25:08;12.3;99.9
38221;DHT22;24023;51.280;7.148;2022-11-15T03:30:11;12.3;99.9
38221;DHT22;24023;51.280;7.148;2022-11-15T03:35:09;12.3;99.9
38221;DHT22;24023;51.280;7.148;2022-11-15T03:40:08;12.3;99.9
38221;DHT22;24023;51.280;7.148;2022-11-15T03:45:14;12.3;99.9
38221;DHT22;24023;51.280;7.148;2022-11-15T03:50:11;12.2;99.9
38221;DHT22;24023;51.280;7.148;2022-11-15T03:55:08;12.2;99.9
38221;DHT22;24023;51.280;7.148;2022-11-15T04:00:11;12.3;99.9
38221;DHT22;24023;51.280;7.148;2022-11-15T04:05:08;12.3;99.9
38221;DHT22;24023;51.280;7.148;2022-11-15T04:10:10;12.3;99.9
38221;DHT22;24023;51.280;7.148;2022-11-15T04:15:10;12.2;99.9
38221;DHT22;24023;51.280;7.148;2022-11-15T04:25:06;12.2;99.9
38221;DHT22;24023;51.280;7.148;2022-11-15T04:30:12;12.2;99.9
38221;DHT22;24023;51.280;7.148;2022-11-15T04:35:07;12.2;99.9
38221;DHT22;24023;51.280;7.148;2022-11-15T04:40:08;12.2;99.9
38221;DHT22;24023;51.280;7.148;2022-11-15T04:45:10;12.2;99.9
38221;DHT22;24023;51.280;7.148;2022-11-15T04:50:08;12.3;99.9
38221;DHT22;24023;51.280;7.148;2022-11-15T04:55:07;12.3;99.9
38221;DHT22;24023;51.280;7.148;2022-11-15T05:00:14;12.3;99.9
38221;DHT22;24023;51.280;7.148;2022-11-15T05:05:07;12.2;99.9
38221;DHT22;24023;51.280;7.148;2022-11-15T05:10:08;12.2;99.9
38221;DHT22;24023;51.280;7.148;2022-11-15T05:15:09;12.1;99.9
38221;DHT22;24023;51.280;7.148;2022-11-15T05:20:09;12.1;99.9
38221;DHT22;24023;51.280;7.148;2022-11-15T05:25:08;12.2;99.9
38221;DHT22;24023;51.280;7.148;2022-11-15T05:30:10;12.3;99.9
38221;DHT22;24023;51.280;7.148;2022-11-15T05:35:09;12.3;99.9
38221;DHT22;24023;51.280;7.148;2022-11-15T05:40:09;12.3;99.9
38221;DHT22;24023;51.280;7.148;2022-11-15T05:45:11;12.3;99.9
38221;DHT22;24023;51.280;7.148;2022-11-15T05:50:11;12.3;99.9
38221;DHT22;24023;51.280;7.148;2022-11-15T05:55:07;12.2;99.9
38221;DHT22;24023;51.280;7.148;2022-11-15T06:00:12;12.2;99.9
38221;DHT22;24023;51.280;7.148;2022-11-15T06:05:07;12.3;99.9
38221;DHT22;24023;51.280;7.148;2022-11-15T06:10:09;12.3;99.9
38221;DHT22;24023;51.280;7.148;2022-11-15T06:15:09;12.3;99.9
38221;DHT22;24023;51.280;7.148;2022-11-15T06:20:09;12.3;99.9
38221;DHT22;24023;51.280;7.148;2022-11-15T06:25:07;12.3;99.9
38221;DHT22;24023;51.280;7.148;2022-11-15T06:30:10;12.3;99.9
38221;DHT22;24023;51.280;7.148;2022-11-15T06:35:06;12.3;99.9
38221;DHT22;24023;51.280;7.148;2022-11-15T06:40:10;12.3;99.9
38221;DHT22;24023;51.280;7.148;2022-11-15T06:45:09;12.4;99.9
38221;DHT22;24023;51.280;7.148;2022-11-15T06:50:08;12.4;99.9
38221;DHT22;24023;51.280;7.148;2022-11-15T06:55:08;12.2;99.9
38221;DHT22;24023;51.280;7.148;2022-11-15T07:00:13;12.2;99.9
38221;DHT22;24023;51.280;7.148;2022-11-15T07:05:07;12.2;99.9
38221;DHT22;24023;51.280;7.148;2022-11-15T07:10:09;12.1;99.9
38221;DHT22;24023;51.280;7.148;2022-11-15T07:15:09;12.1;99.9
38221;DHT22;24023;51.280;7.148;2022-11-15T07:20:09;11.9;99.9
38221;DHT22;24023;51.280;7.148;2022-11-15T07:25:07;11.9;99.9
38221;DHT22;24023;51.280;7.148;2022-11-15T07:30:11;11.9;99.9
38221;DHT22;24023;51.280;7.148;2022-11-15T07:35:07;11.9;99.9
38221;DHT22;24023;51.280;7.148;2022-11-15T07:40:09;11.9;99.9
38221;DHT22;24023;51.280;7.148;2022-11-15T07:45:11;11.9;99.9
38221;DHT22;24023;51.280;7.148;2022-11-15T07:50:08;11.9;99.9
38221;DHT22;24023;51.280;7.148;2022-11-15T07:55:07;11.9;99.9
38221;DHT22;24023;51.280;7.148;2022-11-15T08:00:15;11.9;99.9
38221;DHT22;24023;51.280;7.148;2022-11-15T08:05:07;11.9;99.9
38221;DHT22;24023;51.280;7.148;2022-11-15T08:10:08;11.9;99.9
38221;DHT22;24023;51.280;7.148;2022-11-15T08:15:09;11.9;99.9
38221;DHT22;24023;51.280;7.148;2022-11-15T08:20:08;12.1;99.9
38221;DHT22;24023;51.280;7.148;2022-11-15T08:25:06;12.1;99.9
38221;DHT22;24023;51.280;7.148;2022-11-15T08:30:10;12.1;99.9
38221;DHT22;24023;51.280;7.148;2022-11-15T08:35:07;12.3;99.9
38221;DHT22;24023;51.280;7.148;2022-11-15T08:40:09;12.3;99.9
38221;DHT22;24023;51.280;7.148;2022-11-15T08:45:10;12.3;99.9
38221;DHT22;24023;51.280;7.148;2022-11-15T08:50:08;12.3;99.9
38221;DHT22;24023;51.280;7.148;2022-11-15T08:55:07;12.4;99.9
38221;DHT22;24023;51.280;7.148;2022-11-15T09:00:13;12.4;99.9
38221;DHT22;24023;51.280;7.148;2022-11-15T09:05:07;12.4;99.9
38221;DHT22;24023;51.280;7.148;2022-11-15T09:10:09;12.3;99.9
38221;DHT22;24023;51.280;7.148;2022-11-15T09:15:09;12.3;99.9
38221;DHT22;24023;51.280;7.148;2022-11-15T09:20:08;12.4;99.9
38221;DHT22;24023;51.280;7.148;2022-11-15T09:25:08;12.4;99.9
38221;DHT22;24023;51.280;7.148;2022-11-15T09:30:10;12.4;99.9
38221;DHT22;24023;51.280;7.148;2022-11-15T09:35:07;12.6;99.9
38221;DHT22;24023;51.280;7.148;2022-11-15T09:40:10;12.6;99.9
38221;DHT22;24023;51.280;7.148;2022-11-15T09:45:17;12.7;99.9
38221;DHT22;24023;51.280;7.148;2022-11-15T09:50:10;12.7;99.9
38221;DHT22;24023;51.280;7.148;2022-11-15T09:55:09;12.7;99.9
38221;DHT22;24023;51.280;7.148;2022-11-15T10:00:17;12.8;99.9
38221;DHT22;24023;51.280;7.148;2022-11-15T10:05:10;12.8;99.9
38221;DHT22;24023;51.280;7.148;2022-11-15T10:10:14;12.8;99.9
38221;DHT22;24023;51.280;7.148;2022-11-15T10:15:13;12.8;99.9
38221;DHT22;24023;51.280;7.148;2022-11-15T10:20:14;12.8;99.9
38221;DHT22;24023;51.280;7.148;2022-11-15T10:25:14;13.0;99.9
38221;DHT22;24023;51.280;7.148;2022-11-15T10:30:12;13.0;99.9
38221;DHT22;24023;51.280;7.148;2022-11-15T10:35:18;13.1;99.9
38221;DHT22;24023;51.280;7.148;2022-11-15T10:40:17;13.1;99.9
38221;DHT22;24023;51.280;7.148;2022-11-15T10:45:24;13.3;99.3
38221;DHT22;24023;51.280;7.148;2022-11-15T10:50:29;13.3;99.3
38221;DHT22;24023;51.280;7.148;2022-11-15T10:55:22;13.3;99.3
38221;DHT22;24023;51.280;7.148;2022-11-15T11:00:27;13.5;99.4
38221;DHT22;24023;51.280;7.148;2022-11-15T11:05:26;13.5;99.4
38221;DHT22;24023;51.280;7.148;2022-11-15T11:10:18;13.6;97.8
38221;DHT22;24023;51.280;7.148;2022-11-15T11:15:11;13.6;97.8
38221;DHT22;24023;51.280;7.148;2022-11-15T11:20:16;13.6;97.8
38221;DHT22;24023;51.280;7.148;2022-11-15T11:25:18;13.6;96.8
38221;DHT22;24023;51.280;7.148;2022-11-15T11:30:16;13.6;96.8
38221;DHT22;24023;51.280;7.148;2022-11-15T11:35:12;13.8;95.6
38221;DHT22;24023;51.280;7.148;2022-11-15T11:40:17;13.8;95.6
38221;DHT22;24023;51.280;7.148;2022-11-15T11:45:19;14.0;93.4
38221;DHT22;24023;51.280;7.148;2022-11-15T11:50:13;14.0;93.4
38221;DHT22;24023;51.280;7.148;2022-11-15T11:55:15;14.0;93.4
38221;DHT22;24023;51.280;7.148;2022-11-15T12:00:18;14.1;94.0
38221;DHT22;24023;51.280;7.148;2022-11-15T12:05:13;14.1;94.0
38221;DHT22;24023;51.280;7.148;2022-11-15T12:10:17;13.8;93.7
38221;DHT22;24023;51.280;7.148;2022-11-15T12:15:15;13.8;93.7
38221;DHT22;24023;51.280;7.148;2022-11-15T12:20:15;13.8;93.7
38221;DHT22;24023;51.280;7.148;2022-11-15T12:25:14;13.6;93.9
38221;DHT22;24023;51.280;7.148;2022-11-15T12:30:13;13.6;93.9
38221;DHT22;24023;51.280;7.148;2022-11-15T12:35:23;13.6;94.3
38221;DHT22;24023;51.280;7.148;2022-11-15T12:40:19;13.7;94.2
38221;DHT22;24023;51.280;7.148;2022-11-15T12:45:25;13.7;94.2
38221;DHT22;24023;51.280;7.148;2022-11-15T12:50:12;13.6;94.0
38221;DHT22;24023;51.280;7.148;2022-11-15T12:55:39;13.6;94.0
38221;DHT22;24023;51.280;7.148;2022-11-15T13:00:42;13.8;93.7
38221;DHT22;24023;51.280;7.148;2022-11-15T13:05:51;13.8;93.7
38221;DHT22;24023;51.280;7.148;2022-11-15T13:10:29;13.8;93.7
38221;DHT22;24023;51.280;7.148;2022-11-15T13:15:33;13.5;94.8
38221;DHT22;24023;51.280;7.148;2022-11-15T13:20:19;13.5;94.8
38221;DHT22;24023;51.280;7.148;2022-11-15T13:25:15;13.7;94.8
38221;DHT22;24023;51.280;7.148;2022-11-15T13:30:14;13.7;94.8
38221;DHT22;24023;51.280;7.148;2022-11-15T13:35:07;13.7;94.8
38221;DHT22;24023;51.280;7.148;2022-11-15T13:40:20;13.6;95.8
38221;DHT22;24023;51.280;7.148;2022-11-15T13:45:14;13.6;95.8
38221;DHT22;24023;51.280;7.148;2022-11-15T13:50:10;13.5;96.9
38221;DHT22;24023;51.280;7.148;2022-11-15T13:55:13;13.5;96.9
38221;DHT22;24023;51.280;7.148;2022-11-15T14:00:27;13.5;96.9
38221;DHT22;24023;51.280;7.148;2022-11-15T14:05:15;13.5;98.1
38221;DHT22;24023;51.280;7.148;2022-11-15T14:10:38;13.5;98.1
38221;DHT22;24023;51.280;7.148;2022-11-15T14:15:24;13.4;98.9
38221;DHT22;24023;51.280;7.148;2022-11-15T14:20:39;13.4;98.9
38221;DHT22;24023;51.280;7.148;2022-11-15T14:25:14;13.4;98.9
38221;DHT22;24023;51.280;7.148;2022-11-15T14:30:13;13.3;99.3
38221;DHT22;24023;51.280;7.148;2022-11-15T14:35:13;13.3;99.3
38221;DHT22;24023;51.280;7.148;2022-11-15T14:40:13;13.3;99.3
38221;DHT22;24023;51.280;7.148;2022-11-15T14:45:12;13.4;99.5
38221;DHT22;24023;51.280;7.148;2022-11-15T14:50:12;13.4;99.5
38221;DHT22;24023;51.280;7.148;2022-11-15T14:55:15;13.3;99.6
38221;DHT22;24023;51.280;7.148;2022-11-15T15:00:12;13.3;99.6
38221;DHT22;24023;51.280;7.148;2022-11-15T15:05:14;13.3;99.6
38221;DHT22;24023;51.280;7.148;2022-11-15T15:10:09;13.3;99.9
38221;DHT22;24023;51.280;7.148;2022-11-15T15:15:13;13.3;99.9
38221;DHT22;24023;51.280;7.148;2022-11-15T15:20:09;13.3;99.9
38221;DHT22;24023;51.280;7.148;2022-11-15T15:25:20;13.3;99.9
38221;DHT22;24023;51.280;7.148;2022-11-15T15:30:10;13.3;99.9
38221;DHT22;24023;51.280;7.148;2022-11-15T15:35:10;13.3;99.9
38221;DHT22;24023;51.280;7.148;2022-11-15T15:40:13;13.2;99.9
38221;DHT22;24023;51.280;7.148;2022-11-15T15:45:11;13.2;99.9
38221;DHT22;24023;51.280;7.148;2022-11-15T15:50:17;13.2;99.9
38221;DHT22;24023;51.280;7.148;2022-11-15T15:55:08;13.1;99.9
38221;DHT22;24023;51.280;7.148;2022-11-15T16:00:11;13.1;99.9
38221;DHT22;24023;51.280;7.148;2022-11-15T16:05:07;13.1;99.9
38221;DHT22;24023;51.280;7.148;2022-11-15T16:10:17;13.1;99.9
38221;DHT22;24023;51.280;7.148;2022-11-15T16:15:08;13.1;99.9
38221;DHT22;24023;51.280;7.148;2022-11-15T16:20:20;13.1;99.9
38221;DHT22;24023;51.280;7.148;2022-11-15T16:25:07;13.1;99.9
38221;DHT22;24023;51.280;7.148;2022-11-15T16:30:12;13.0;99.9
38221;DHT22;24023;51.280;7.148;2022-11-15T16:35:09;13.0;99.9
38221;DHT22;24023;51.280;7.148;2022-11-15T16:40:17;13.0;99.9
38221;DHT22;24023;51.280;7.148;2022-11-15T16:45:11;13.1;99.9
38221;DHT22;24023;51.280;7.148;2022-11-15T16:50:18;13.1;99.9
38221;DHT22;24023;51.280;7.148;2022-11-15T16:55:07;13.0;99.9
38221;DHT22;24023;51.280;7.148;2022-11-15T17:00:14;13.0;99.9
38221;DHT22;24023;51.280;7.148;2022-11-15T17:05:07;13.0;99.9
38221;DHT22;24023;51.280;7.148;2022-11-15T17:10:10;13.0;99.9
38221;DHT22;24023;51.280;7.148;2022-11-15T17:15:11;13.0;99.9
38221;DHT22;24023;51.280;7.148;2022-11-15T17:20:13;13.0;99.9
38221;DHT22;24023;51.280;7.148;2022-11-15T17:25:07;13.0;99.9
38221;DHT22;24023;51.280;7.148;2022-11-15T17:30:11;13.0;99.9
38221;DHT22;24023;51.280;7.148;2022-11-15T17:35:08;13.0;99.9
38221;DHT22;24023;51.280;7.148;2022-11-15T17:40:09;13.0;99.9
38221;DHT22;24023;51.280;7.148;2022-11-15T17:45:10;13.0;99.9
38221;DHT22;24023;51.280;7.148;2022-11-15T17:50:08;13.0;99.9
38221;DHT22;24023;51.280;7.148;2022-11-15T17:55:08;13.0;99.9
38221;DHT22;24023;51.280;7.148;2022-11-15T18:00:17;13.0;99.9
38221;DHT22;24023;51.280;7.148;2022-11-15T18:05:07;13.0;99.9
38221;DHT22;24023;51.280;7.148;2022-11-15T18:10:08;13.0;99.9
38221;DHT22;24023;51.280;7.148;2022-11-15T18:15:08;13.0;99.9
38221;DHT22;24023;51.280;7.148;2022-11-15T18:20:08;13.0;99.9
38221;DHT22;24023;51.280;7.148;2022-11-15T18:25:07;13.1;99.9
38221;DHT22;24023;51.280;7.148;2022-11-15T18:30:11;13.1;99.9
38221;DHT22;24023;51.280;7.148;2022-11-15T18:35:06;13.1;99.9
38221;DHT22;24023;51.280;7.148;2022-11-15T18:40:08;12.8;99.9
38221;DHT22;24023;51.280;7.148;2022-11-15T18:45:09;12.8;99.9
38221;DHT22;24023;51.280;7.148;2022-11-15T18:50:08;12.7;99.9
38221;DHT22;24023;51.280;7.148;2022-11-15T18:55:08;12.7;99.9
38221;DHT22;24023;51.280;7.148;2022-11-15T19:00:12;12.7;99.9
38221;DHT22;24023;51.280;7.148;2022-11-15T19:05:07;12.6;99.9
38221;DHT22;24023;51.280;7.148;2022-11-15T19:10:10;12.6;99.9
38221;DHT22;24023;51.280;7.148;2022-11-15T19:15:08;12.6;99.9
38221;DHT22;24023;51.280;7.148;2022-11-15T19:20:09;12.6;99.9
38221;DHT22;24023;51.280;7.148;2022-11-15T19:25:08;12.6;99.9
38221;DHT22;24023;51.280;7.148;2022-11-15T19:30:10;12.4;99.9
38221;DHT22;24023;51.280;7.148;2022-11-15T19:35:07;12.4;99.9
38221;DHT22;24023;51.280;7.148;2022-11-15T19:40:09;12.5;99.9
38221;DHT22;24023;51.280;7.148;2022-11-15T19:45:10;12.5;99.9
38221;DHT22;24023;51.280;7.148;2022-11-15T19:50:08;12.4;99.9
38221;DHT22;24023;51.280;7.148;2022-11-15T19:55:07;12.4;99.9
38221;DHT22;24023;51.280;7.148;2022-11-15T20:00:12;12.3;99.9
38221;DHT22;24023;51.280;7.148;2022-11-15T20:05:07;12.3;99.9
38221;DHT22;24023;51.280;7.148;2022-11-15T20:10:08;12.2;99.9
38221;DHT22;24023;51.280;7.148;2022-11-15T20:15:08;12.2;99.9
38221;DHT22;24023;51.280;7.148;2022-11-15T20:20:09;12.2;99.9
38221;DHT22;24023;51.280;7.148;2022-11-15T20:25:07;12.2;99.9
38221;DHT22;24023;51.280;7.148;2022-11-15T20:30:10;12.2;99.9
38221;DHT22;24023;51.280;7.148;2022-11-15T20:35:07;12.2;99.9
38221;DHT22;24023;51.280;7.148;2022-11-15T20:40:09;12.2;99.9
38221;DHT22;24023;51.280;7.148;2022-11-15T20:45:10;12.2;99.9
38221;DHT22;24023;51.280;7.148;2022-11-15T20:50:09;12.2;99.9
38221;DHT22;24023;51.280;7.148;2022-11-15T20:55:06;12.2;99.9
38221;DHT22;24023;51.280;7.148;2022-11-15T21:00:12;12.1;99.9
38221;DHT22;24023;51.280;7.148;2022-11-15T21:05:07;12.1;99.9
38221;DHT22;24023;51.280;7.148;2022-11-15T21:15:08;12.2;99.9
38221;DHT22;24023;51.280;7.148;2022-11-15T21:20:08;12.2;99.9
38221;DHT22;24023;51.280;7.148;2022-11-15T21:25:06;12.1;99.9
38221;DHT22;24023;51.280;7.148;2022-11-15T21:30:11;12.1;99.9
38221;DHT22;24023;51.280;7.148;2022-11-15T21:35:07;12.1;99.9
38221;DHT22;24023;51.280;7.148;2022-11-15T21:40:09;12.1;99.9
38221;DHT22;24023;51.280;7.148;2022-11-15T21:45:11;12.1;99.9
38221;DHT22;24023;51.280;7.148;2022-11-15T21:50:08;11.9;99.9
38221;DHT22;24023;51.280;7.148;2022-11-15T21:55:07;11.9;99.9
38221;DHT22;24023;51.280;7.148;2022-11-15T22:05:07;12.0;99.9
38221;DHT22;24023;51.280;7.148;2022-11-15T22:10:08;12.0;99.9
38221;DHT22;24023;51.280;7.148;2022-11-15T22:15:08;12.0;99.9
38221;DHT22;24023;51.280;7.148;2022-11-15T22:20:08;12.0;99.9
38221;DHT22;24023;51.280;7.148;2022-11-15T22:25:06;12.0;99.9
38221;DHT22;24023;51.280;7.148;2022-11-15T22:30:10;12.0;99.9
38221;DHT22;24023;51.280;7.148;2022-11-15T22:35:07;12.0;99.9
38221;DHT22;24023;51.280;7.148;2022-11-15T22:40:09;12.1;99.9
38221;DHT22;24023;51.280;7.148;2022-11-15T22:45:10;12.1;99.9
38221;DHT22;24023;51.280;7.148;2022-11-15T22:50:08;12.0;99.9
38221;DHT22;24023;51.280;7.148;2022-11-15T22:55:08;12.0;99.9
38221;DHT22;24023;51.280;7.148;2022-11-15T23:00:19;12.0;99.9
38221;DHT22;24023;51.280;7.148;2022-11-15T23:05:08;12.0;99.9
38221;DHT22;24023;51.280;7.148;2022-11-15T23:15:08;11.9;99.9
38221;DHT22;24023;51.280;7.148;2022-11-15T23:20:08;11.9;99.9
38221;DHT22;24023;51.280;7.148;2022-11-15T23:25:07;11.9;99.9
38221;DHT22;24023;51.280;7.148;2022-11-15T23:35:07;11.9;99.9
38221;DHT22;24023;51.280;7.148;2022-11-15T23:40:09;12.0;99.9
38221;DHT22;24023;51.280;7.148;2022-11-15T23:45:11;12.0;99.9
38221;DHT22;24023;51.280;7.148;2022-11-15T23:50:09;12.0;99.9
38221;DHT22;24023;51.280;7.148;2022-11-15T23:55:07;12.0;99.9
